Time;durP1;ratioP1;P1;durP2;ratioP2;P2;SDS_P1;SDS_P2;PMS_P1;PMS_P2;Temp;Humidity;BMP_temperature;BMP_pressure;BME280_temperature;BME280_humidity;BME280_pressure;Samples;Min_cycle;Max_cycle;Signal;HPM_P1;HPM_P2
2022/10/09 00:00:20;;;;;;;;;;;8.40;99.90;;;;;;5127136;28;20233;-74
2022/10/09 00:02:46;;;;;;;;;;;8.30;99.90;;;;;;5101373;27;20249;-74
2022/10/09 00:05:11;;;;;;;;;;;8.30;99.90;;;;;;5147604;27;20137;-74
2022/10/09 00:07:37;;;;;;;;;;;8.30;99.90;;;;;;5128817;27;19915;-74
2022/10/09 00:10:03;;;;;;;;;;;8.20;99.90;;;;;;5147528;27;20001;-74
2022/10/09 00:12:28;;;;;;;;;;;8.10;99.90;;;;;;5129267;27;19982;-74
2022/10/09 00:14:54;;;;;;;;;;;8.00;99.90;;;;;;5147381;27;19907;-74
2022/10/09 00:17:20;;;;;;;;;;;7.90;99.90;;;;;;5128689;27;19916;-74
2022/10/09 00:19:45;;;;;;;;;;;7.80;99.90;;;;;;5147051;27;19908;-74
2022/10/09 00:22:11;;;;;;;;;;;7.80;99.90;;;;;;5147266;27;19982;-74
2022/10/09 00:24:37;;;;;;;;;;;7.70;99.90;;;;;;5147294;27;20198;-74
2022/10/09 00:27:02;;;;;;;;;;;7.70;99.90;;;;;;5128732;27;19915;-74
2022/10/09 00:29:28;;;;;;;;;;;7.70;99.90;;;;;;5147203;27;19968;-74
2022/10/09 00:31:54;;;;;;;;;;;7.70;99.90;;;;;;5142744;27;19969;-74
2022/10/09 00:34:19;;;;;;;;;;;7.70;99.90;;;;;;5126213;28;19908;-74
2022/10/09 00:36:45;;;;;;;;;;;7.80;99.90;;;;;;5125597;28;19915;-74
2022/10/09 00:39:11;;;;;;;;;;;7.80;99.90;;;;;;5126160;28;20210;-74
2022/10/09 00:41:36;;;;;;;;;;;7.80;99.90;;;;;;5091109;28;19908;-74
2022/10/09 00:44:23;;;;;;;;;;;7.80;99.90;;;;;;5126115;28;19915;-74
2022/10/09 00:46:49;;;;;;;;;;;7.80;99.90;;;;;;5128093;27;19919;-74
2022/10/09 00:49:28;;;;;;;;;;;7.80;99.90;;;;;;5128175;27;19930;-74
2022/10/09 00:51:55;;;;;;;;;;;7.80;99.90;;;;;;5128143;27;19907;-73
2022/10/09 00:54:22;;;;;;;;;;;7.70;99.90;;;;;;5111477;27;19970;-74
2022/10/09 00:56:48;;;;;;;;;;;7.70;99.90;;;;;;5128229;27;20104;-73
2022/10/09 00:59:14;;;;;;;;;;;7.70;99.90;;;;;;5128274;27;19908;-74
2022/10/09 01:01:39;;;;;;;;;;;7.70;99.90;;;;;;5145515;27;19908;-74
2022/10/09 01:04:05;;;;;;;;;;;7.60;99.90;;;;;;5118477;28;19914;-73
2022/10/09 01:06:53;;;;;;;;;;;7.60;99.90;;;;;;5125441;28;19908;-73
2022/10/09 01:09:21;;;;;;;;;;;7.60;99.90;;;;;;5125788;28;19961;-73
2022/10/09 01:11:47;;;;;;;;;;;7.60;99.90;;;;;;5091082;28;19914;-73
2022/10/09 01:14:17;;;;;;;;;;;7.50;99.90;;;;;;5125554;28;19916;-73
2022/10/09 01:16:46;;;;;;;;;;;7.40;99.90;;;;;;5125033;28;19930;-73
2022/10/09 01:19:39;;;;;;;;;;;7.40;99.90;;;;;;5090503;28;20092;-74
2022/10/09 01:22:37;;;;;;;;;;;7.30;99.90;;;;;;5092604;28;20182;-73
2022/10/09 01:25:06;;;;;;;;;;;7.30;99.90;;;;;;5092154;28;19916;-74
2022/10/09 01:27:32;;;;;;;;;;;7.30;99.90;;;;;;5125031;28;19908;-74
2022/10/09 01:30:06;;;;;;;;;;;7.30;99.90;;;;;;5107371;28;19916;-74
2022/10/09 01:32:34;;;;;;;;;;;7.30;99.90;;;;;;5090867;28;19914;-75
2022/10/09 01:35:00;;;;;;;;;;;7.30;99.90;;;;;;5106984;28;19908;-74
2022/10/09 01:37:25;;;;;;;;;;;7.30;99.90;;;;;;5099781;22;19920;-73
2022/10/09 01:39:51;;;;;;;;;;;7.30;99.90;;;;;;5062967;28;19920;-73
2022/10/09 01:42:17;;;;;;;;;;;7.20;99.90;;;;;;5030224;28;19996;-73
2022/10/09 01:44:43;;;;;;;;;;;7.20;99.90;;;;;;5046987;28;19908;-73
2022/10/09 01:47:19;;;;;;;;;;;7.20;99.90;;;;;;5064391;28;19939;-74
2022/10/09 01:50:12;;;;;;;;;;;7.10;99.90;;;;;;5063401;28;19919;-74
2022/10/09 01:52:43;;;;;;;;;;;7.10;99.90;;;;;;5064281;28;19955;-74
2022/10/09 01:55:27;;;;;;;;;;;7.10;99.90;;;;;;5062835;28;19908;-74
2022/10/09 01:58:03;;;;;;;;;;;7.00;99.90;;;;;;5063815;28;19909;-74
2022/10/09 02:00:31;;;;;;;;;;;7.00;99.90;;;;;;5063277;28;19912;-74
2022/10/09 02:02:57;;;;;;;;;;;7.00;99.90;;;;;;5062927;28;19947;-74
2022/10/09 02:05:27;;;;;;;;;;;7.00;99.90;;;;;;5063218;28;20204;-74
2022/10/09 02:07:52;;;;;;;;;;;7.00;99.90;;;;;;5061779;28;19947;-74
2022/10/09 02:10:18;;;;;;;;;;;7.00;99.90;;;;;;5063066;28;19996;-74
2022/10/09 02:12:57;;;;;;;;;;;7.00;99.90;;;;;;5046451;28;20214;-74
2022/10/09 02:15:26;;;;;;;;;;;7.00;99.90;;;;;;5046183;28;19909;-74
2022/10/09 02:17:51;;;;;;;;;;;7.00;99.90;;;;;;5062826;28;19909;-74
2022/10/09 02:20:23;;;;;;;;;;;6.90;99.90;;;;;;5064403;28;19920;-73
2022/10/09 02:22:49;;;;;;;;;;;6.90;99.90;;;;;;5066506;28;19916;-73
2022/10/09 02:25:15;;;;;;;;;;;6.90;99.90;;;;;;5057820;28;19979;-74
2022/10/09 02:27:40;;;;;;;;;;;6.80;99.90;;;;;;5050097;28;19923;-74
2022/10/09 02:30:07;;;;;;;;;;;6.80;99.90;;;;;;5054349;28;19908;-74
2022/10/09 02:32:32;;;;;;;;;;;6.80;99.90;;;;;;5058009;28;19909;-74
2022/10/09 02:34:58;;;;;;;;;;;6.80;99.90;;;;;;5057647;28;19936;-74
2022/10/09 02:37:23;;;;;;;;;;;6.70;99.90;;;;;;5068819;28;19916;-73
2022/10/09 02:39:49;;;;;;;;;;;6.70;99.90;;;;;;5063886;28;19919;-74
2022/10/09 02:42:15;;;;;;;;;;;6.70;99.90;;;;;;5063191;28;19924;-74
2022/10/09 02:44:41;;;;;;;;;;;6.70;99.90;;;;;;5063604;28;20123;-74
2022/10/09 02:47:07;;;;;;;;;;;6.70;99.90;;;;;;5063265;28;19908;-74
2022/10/09 02:49:32;;;;;;;;;;;6.70;99.90;;;;;;5063681;28;19915;-74
2022/10/09 02:51:58;;;;;;;;;;;6.60;99.90;;;;;;5062059;28;19909;-75
2022/10/09 02:54:24;;;;;;;;;;;6.60;99.90;;;;;;5063319;28;19940;-74
2022/10/09 02:56:49;;;;;;;;;;;6.60;99.90;;;;;;5060541;28;19921;-72
2022/10/09 02:59:15;;;;;;;;;;;6.60;99.90;;;;;;5062670;28;19987;-74
2022/10/09 03:01:41;;;;;;;;;;;6.60;99.90;;;;;;5062913;28;19909;-75
2022/10/09 03:04:06;;;;;;;;;;;6.60;99.90;;;;;;5063207;28;19936;-76
2022/10/09 03:06:32;;;;;;;;;;;6.60;99.90;;;;;;5061454;28;20243;-75
2022/10/09 03:08:58;;;;;;;;;;;6.60;99.90;;;;;;5061860;28;19908;-75
2022/10/09 03:11:24;;;;;;;;;;;6.60;99.90;;;;;;5062077;28;19917;-75
2022/10/09 03:13:49;;;;;;;;;;;6.60;99.90;;;;;;5061766;28;19909;-75
2022/10/09 03:16:17;;;;;;;;;;;6.60;99.90;;;;;;5045006;28;19917;-75
2022/10/09 03:18:42;;;;;;;;;;;6.50;99.90;;;;;;5054847;28;19947;-75
2022/10/09 03:21:10;;;;;;;;;;;6.50;99.90;;;;;;5044404;28;19996;-76
2022/10/09 03:23:35;;;;;;;;;;;6.50;99.90;;;;;;5061755;28;19916;-76
2022/10/09 03:26:03;;;;;;;;;;;6.50;99.90;;;;;;5046505;28;19916;-75
2022/10/09 03:28:29;;;;;;;;;;;6.50;99.90;;;;;;5048638;28;19912;-75
2022/10/09 03:30:55;;;;;;;;;;;6.40;99.90;;;;;;5065161;28;20249;-74
2022/10/09 03:33:20;;;;;;;;;;;6.40;99.90;;;;;;5062839;28;19917;-73
2022/10/09 03:35:46;;;;;;;;;;;6.40;99.90;;;;;;5044792;28;20199;-73
2022/10/09 03:38:12;;;;;;;;;;;6.40;99.90;;;;;;5060954;28;20148;-73
2022/10/09 03:40:38;;;;;;;;;;;6.30;99.90;;;;;;5061199;28;19920;-74
2022/10/09 03:43:04;;;;;;;;;;;6.30;99.90;;;;;;5059541;28;19912;-74
2022/10/09 03:45:29;;;;;;;;;;;6.20;99.90;;;;;;5053205;28;19916;-74
2022/10/09 03:47:55;;;;;;;;;;;6.20;99.90;;;;;;5044538;28;19917;-75
2022/10/09 03:50:21;;;;;;;;;;;6.20;99.90;;;;;;5062543;28;20150;-74
2022/10/09 03:52:46;;;;;;;;;;;6.20;99.90;;;;;;5055963;28;19909;-74
2022/10/09 03:55:12;;;;;;;;;;;6.10;99.90;;;;;;5061500;28;19975;-75
2022/10/09 03:57:38;;;;;;;;;;;6.10;99.90;;;;;;5062067;28;19979;-75
2022/10/09 04:00:04;;;;;;;;;;;6.10;99.90;;;;;;5052067;28;19940;-75
2022/10/09 04:02:31;;;;;;;;;;;6.00;99.90;;;;;;5060335;28;20114;-74
2022/10/09 04:04:57;;;;;;;;;;;6.00;99.90;;;;;;5053468;28;19909;-74
2022/10/09 04:07:22;;;;;;;;;;;6.00;99.90;;;;;;5059697;28;19931;-76
2022/10/09 04:09:49;;;;;;;;;;;5.90;99.90;;;;;;5069265;28;19909;-74
2022/10/09 04:12:14;;;;;;;;;;;5.90;99.90;;;;;;5062114;28;19908;-74
2022/10/09 04:14:40;;;;;;;;;;;5.90;99.90;;;;;;5061389;28;19923;-74
2022/10/09 04:17:06;;;;;;;;;;;5.90;99.90;;;;;;5060460;28;19963;-74
2022/10/09 04:19:31;;;;;;;;;;;5.90;99.90;;;;;;5052388;28;19970;-75
2022/10/09 04:21:57;;;;;;;;;;;5.80;99.90;;;;;;5043382;28;20137;-75
2022/10/09 04:24:23;;;;;;;;;;;5.80;99.90;;;;;;5050308;28;20196;-75
2022/10/09 04:26:48;;;;;;;;;;;5.70;99.90;;;;;;5060675;28;19976;-75
2022/10/09 04:29:14;;;;;;;;;;;5.70;99.90;;;;;;5061147;28;19909;-75
2022/10/09 04:31:40;;;;;;;;;;;5.70;99.90;;;;;;5062446;28;19917;-75
2022/10/09 04:34:05;;;;;;;;;;;5.70;99.90;;;;;;5061109;28;19939;-75
2022/10/09 04:36:31;;;;;;;;;;;5.60;99.90;;;;;;5062710;28;19916;-75
2022/10/09 04:38:57;;;;;;;;;;;5.60;99.90;;;;;;5065657;28;19920;-75
2022/10/09 04:41:22;;;;;;;;;;;5.50;99.90;;;;;;5065645;28;19909;-74
2022/10/09 04:43:48;;;;;;;;;;;5.50;99.90;;;;;;5064162;28;19936;-75
2022/10/09 04:46:14;;;;;;;;;;;5.50;99.90;;;;;;5064329;28;19909;-75
2022/10/09 04:48:41;;;;;;;;;;;5.50;99.90;;;;;;5064380;28;19916;-75
2022/10/09 04:51:06;;;;;;;;;;;5.50;99.90;;;;;;5064683;28;19948;-75
2022/10/09 04:53:33;;;;;;;;;;;5.50;99.90;;;;;;5064721;28;20223;-75
2022/10/09 04:56:04;;;;;;;;;;;5.50;99.90;;;;;;5063131;28;20092;-75
2022/10/09 04:58:30;;;;;;;;;;;5.50;99.90;;;;;;5063968;28;19916;-75
2022/10/09 05:00:56;;;;;;;;;;;5.50;99.90;;;;;;5063526;28;19916;-75
2022/10/09 05:03:21;;;;;;;;;;;5.50;99.90;;;;;;5063322;28;19913;-75
2022/10/09 05:05:47;;;;;;;;;;;5.50;99.90;;;;;;5063484;28;19928;-75
2022/10/09 05:08:13;;;;;;;;;;;5.50;99.90;;;;;;5064154;28;19968;-75
2022/10/09 05:10:38;;;;;;;;;;;5.50;99.90;;;;;;5047338;28;19909;-75
2022/10/09 05:13:04;;;;;;;;;;;5.50;99.90;;;;;;5063220;28;19916;-74
2022/10/09 05:15:30;;;;;;;;;;;5.50;99.90;;;;;;5055347;28;20113;-75
2022/10/09 05:17:55;;;;;;;;;;;5.40;99.90;;;;;;5063462;28;19908;-75
2022/10/09 05:20:21;;;;;;;;;;;5.50;99.90;;;;;;5063499;28;20014;-75
2022/10/09 05:22:47;;;;;;;;;;;5.40;99.90;;;;;;5062245;28;19924;-75
2022/10/09 05:25:13;;;;;;;;;;;5.40;99.90;;;;;;5063154;28;19908;-74
2022/10/09 05:27:38;;;;;;;;;;;5.40;99.90;;;;;;5056565;28;19913;-74
2022/10/09 05:30:05;;;;;;;;;;;5.40;99.90;;;;;;5064178;28;19925;-74
2022/10/09 05:32:31;;;;;;;;;;;5.40;99.90;;;;;;5062592;28;20116;-74
2022/10/09 05:34:56;;;;;;;;;;;5.30;99.90;;;;;;5064602;28;19940;-71
2022/10/09 05:37:22;;;;;;;;;;;5.30;99.90;;;;;;5063532;28;19912;-71
2022/10/09 05:39:48;;;;;;;;;;;5.40;99.90;;;;;;5064142;28;19919;-71
2022/10/09 05:42:13;;;;;;;;;;;5.30;99.90;;;;;;5063845;28;19908;-72
2022/10/09 05:44:39;;;;;;;;;;;5.30;99.90;;;;;;5064290;28;19908;-72
2022/10/09 05:47:04;;;;;;;;;;;5.30;99.90;;;;;;5062727;28;19916;-71
2022/10/09 05:49:30;;;;;;;;;;;5.40;99.90;;;;;;5064329;28;19924;-71
2022/10/09 05:51:56;;;;;;;;;;;5.30;99.90;;;;;;5064287;28;19916;-72
2022/10/09 05:54:21;;;;;;;;;;;5.30;99.90;;;;;;5063500;28;19915;-71
2022/10/09 05:56:47;;;;;;;;;;;5.30;99.90;;;;;;5063795;28;19940;-72
2022/10/09 05:59:14;;;;;;;;;;;5.30;99.90;;;;;;5063988;28;19976;-70
2022/10/09 06:01:42;;;;;;;;;;;5.30;99.90;;;;;;5063227;28;19929;-72
2022/10/09 06:04:13;;;;;;;;;;;5.30;99.90;;;;;;5062736;28;19928;-72
2022/10/09 06:06:39;;;;;;;;;;;5.30;99.90;;;;;;5046507;28;19916;-71
2022/10/09 06:09:06;;;;;;;;;;;5.30;99.90;;;;;;5061748;28;19927;-71
2022/10/09 06:11:33;;;;;;;;;;;5.40;99.90;;;;;;5060692;28;20203;-76
2022/10/09 06:13:59;;;;;;;;;;;5.40;99.90;;;;;;5059931;28;19935;-75
2022/10/09 06:16:26;;;;;;;;;;;5.30;99.90;;;;;;5061295;28;19920;-75
2022/10/09 06:18:52;;;;;;;;;;;5.30;99.90;;;;;;5046023;28;19916;-78
2022/10/09 06:21:18;;;;;;;;;;;5.30;99.90;;;;;;5062011;28;20082;-78
2022/10/09 06:23:44;;;;;;;;;;;5.30;99.90;;;;;;5043595;28;20112;-77
2022/10/09 06:26:11;;;;;;;;;;;5.30;99.90;;;;;;5033254;28;19916;-77
2022/10/09 06:28:36;;;;;;;;;;;5.30;99.90;;;;;;5063473;28;20146;-78
2022/10/09 06:31:16;;;;;;;;;;;5.30;99.90;;;;;;5078878;28;19920;-79
2022/10/09 06:33:42;;;;;;;;;;;5.30;99.90;;;;;;5056658;28;19909;-79
2022/10/09 06:36:11;;;;;;;;;;;5.30;99.90;;;;;;5076078;28;19948;-77
2022/10/09 06:38:38;;;;;;;;;;;5.40;99.90;;;;;;5062094;28;19943;-79
2022/10/09 06:41:14;;;;;;;;;;;5.40;99.90;;;;;;5062285;28;19981;-79
2022/10/09 06:43:40;;;;;;;;;;;5.50;99.90;;;;;;5063184;28;19917;-79
2022/10/09 06:46:10;;;;;;;;;;;5.50;99.90;;;;;;5045087;28;20106;-79
2022/10/09 06:48:36;;;;;;;;;;;5.50;99.90;;;;;;5045425;28;19917;-73
2022/10/09 06:51:05;;;;;;;;;;;5.50;99.90;;;;;;5063177;28;19972;-74
2022/10/09 06:53:38;;;;;;;;;;;5.60;99.90;;;;;;5060756;28;19909;-73
2022/10/09 06:56:04;;;;;;;;;;;5.60;99.90;;;;;;5063366;28;20195;-75
2022/10/09 06:58:30;;;;;;;;;;;5.70;99.90;;;;;;5060256;28;19917;-74
2022/10/09 07:01:06;;;;;;;;;;;5.70;99.90;;;;;;5061174;28;19979;-74
2022/10/09 07:03:32;;;;;;;;;;;5.70;99.90;;;;;;5059883;28;20096;-74
2022/10/09 07:06:15;;;;;;;;;;;5.80;99.90;;;;;;5052255;28;20007;-73
2022/10/09 07:08:42;;;;;;;;;;;5.80;99.90;;;;;;5076690;28;20270;-73
2022/10/09 07:11:12;;;;;;;;;;;5.90;99.90;;;;;;5058834;28;19917;-73
2022/10/09 07:13:39;;;;;;;;;;;5.90;99.90;;;;;;5061164;28;20151;-74
2022/10/09 07:16:05;;;;;;;;;;;6.00;99.90;;;;;;5058508;28;20180;-71
2022/10/09 07:18:33;;;;;;;;;;;6.00;99.90;;;;;;5060861;28;20215;-70
2022/10/09 07:21:06;;;;;;;;;;;6.10;99.90;;;;;;5060927;28;19909;-71
2022/10/09 07:23:32;;;;;;;;;;;6.10;99.90;;;;;;5074613;28;19909;-71
2022/10/09 07:25:58;;;;;;;;;;;6.00;99.90;;;;;;5060314;28;20020;-70
2022/10/09 07:28:24;;;;;;;;;;;6.00;99.90;;;;;;5060512;28;19951;-68
2022/10/09 07:30:50;;;;;;;;;;;6.10;99.90;;;;;;5061520;28;19916;-68
2022/10/09 07:33:15;;;;;;;;;;;6.10;99.90;;;;;;5060505;28;20076;-69
2022/10/09 07:35:41;;;;;;;;;;;6.20;99.90;;;;;;5061443;28;19909;-69
2022/10/09 07:38:07;;;;;;;;;;;6.30;99.90;;;;;;5051381;28;19925;-69
2022/10/09 07:40:33;;;;;;;;;;;6.30;99.90;;;;;;5060475;28;19936;-71
2022/10/09 07:42:59;;;;;;;;;;;6.40;99.90;;;;;;5060150;28;19912;-71
2022/10/09 07:45:25;;;;;;;;;;;6.40;99.90;;;;;;5055297;28;19958;-71
2022/10/09 07:47:50;;;;;;;;;;;6.60;99.90;;;;;;5059857;28;19921;-71
2022/10/09 07:50:16;;;;;;;;;;;6.60;99.90;;;;;;5059336;28;19913;-70
2022/10/09 07:52:42;;;;;;;;;;;6.70;99.90;;;;;;5059356;28;20286;-70
2022/10/09 07:55:07;;;;;;;;;;;6.80;99.90;;;;;;5061188;28;19912;-71
2022/10/09 07:57:33;;;;;;;;;;;6.90;99.90;;;;;;5060996;28;20356;-71
2022/10/09 07:59:59;;;;;;;;;;;7.00;99.90;;;;;;5058571;28;19912;-71
2022/10/09 08:02:24;;;;;;;;;;;7.00;99.90;;;;;;5061970;28;19987;-71
2022/10/09 08:04:50;;;;;;;;;;;7.10;99.90;;;;;;5060839;28;19920;-71
2022/10/09 08:07:15;;;;;;;;;;;7.20;99.90;;;;;;5060496;28;19958;-71
2022/10/09 08:09:41;;;;;;;;;;;7.30;99.90;;;;;;5059661;28;19921;-71
2022/10/09 08:12:07;;;;;;;;;;;7.40;99.90;;;;;;5064983;28;19913;-71
2022/10/09 08:14:32;;;;;;;;;;;7.40;99.90;;;;;;5064328;28;19912;-72
2022/10/09 08:16:59;;;;;;;;;;;7.50;99.90;;;;;;5065276;28;20303;-72
2022/10/09 08:19:24;;;;;;;;;;;7.60;99.90;;;;;;5064598;28;19987;-71
2022/10/09 08:21:50;;;;;;;;;;;7.70;99.90;;;;;;5065373;28;19959;-71
2022/10/09 08:24:16;;;;;;;;;;;7.70;99.90;;;;;;5064760;28;19921;-71
2022/10/09 08:26:43;;;;;;;;;;;7.80;99.90;;;;;;5065212;28;19913;-71
2022/10/09 08:29:09;;;;;;;;;;;7.90;99.90;;;;;;5062819;28;19931;-71
2022/10/09 08:31:35;;;;;;;;;;;8.00;99.90;;;;;;5067760;28;19921;-71
2022/10/09 08:34:01;;;;;;;;;;;8.10;99.90;;;;;;5058862;28;19921;-71
2022/10/09 08:36:27;;;;;;;;;;;8.20;99.90;;;;;;5068278;28;19959;-74
2022/10/09 08:38:53;;;;;;;;;;;8.30;99.90;;;;;;5066017;28;19917;-72
2022/10/09 08:41:39;;;;;;;;;;;8.40;99.90;;;;;;5067213;28;19920;-71
2022/10/09 08:44:17;;;;;;;;;;;8.50;99.90;;;;;;5055269;28;19912;-72
2022/10/09 08:47:02;;;;;;;;;;;8.70;99.90;;;;;;5045278;28;19920;-75
2022/10/09 08:49:39;;;;;;;;;;;8.80;99.90;;;;;;5080956;28;19966;-76
2022/10/09 08:52:34;;;;;;;;;;;8.90;99.90;;;;;;5055911;28;19912;-73
2022/10/09 08:55:19;;;;;;;;;;;9.10;99.90;;;;;;5047400;28;19920;-73
2022/10/09 08:57:46;;;;;;;;;;;9.30;99.90;;;;;;5065634;28;19913;-78
2022/10/09 09:00:14;;;;;;;;;;;9.50;99.90;;;;;;5064419;28;20170;-74
2022/10/09 09:03:10;;;;;;;;;;;9.70;99.90;;;;;;5080715;28;19912;-76
2022/10/09 09:05:44;;;;;;;;;;;10.00;99.90;;;;;;5065001;28;19925;-73
2022/10/09 09:08:36;;;;;;;;;;;10.30;99.90;;;;;;5062768;28;19979;-72
2022/10/09 09:11:08;;;;;;;;;;;10.70;99.90;;;;;;5064666;28;19908;-75
2022/10/09 09:13:33;;;;;;;;;;;10.90;99.90;;;;;;5062674;28;19913;-74
2022/10/09 09:16:04;;;;;;;;;;;11.20;99.90;;;;;;5064477;28;19912;-78
2022/10/09 09:19:05;;;;;;;;;;;11.30;99.90;;;;;;5055699;28;19925;-77
2022/10/09 09:21:44;;;;;;;;;;;11.50;99.90;;;;;;5033250;28;20322;-76
2022/10/09 09:24:16;;;;;;;;;;;11.70;99.90;;;;;;5043215;28;20285;-75
2022/10/09 09:26:42;;;;;;;;;;;11.90;99.90;;;;;;5063330;28;19913;-76
2022/10/09 09:29:09;;;;;;;;;;;12.10;99.90;;;;;;5057998;28;19940;-73
2022/10/09 09:31:35;;;;;;;;;;;12.30;99.90;;;;;;5062686;28;20018;-72
2022/10/09 09:34:09;;;;;;;;;;;12.40;99.90;;;;;;5061147;28;19913;-76
2022/10/09 09:36:43;;;;;;;;;;;12.60;99.90;;;;;;5065241;28;19984;-73
2022/10/09 09:39:10;;;;;;;;;;;12.70;99.90;;;;;;5063588;28;19920;-79
2022/10/09 09:41:36;;;;;;;;;;;12.90;99.90;;;;;;5061782;28;19935;-71
2022/10/09 09:44:02;;;;;;;;;;;13.00;99.90;;;;;;5064204;28;19909;-72
2022/10/09 09:46:28;;;;;;;;;;;13.10;99.90;;;;;;5062905;28;19919;-75
2022/10/09 09:48:54;;;;;;;;;;;13.20;99.90;;;;;;5061639;28;19935;-74
2022/10/09 09:51:25;;;;;;;;;;;13.30;99.90;;;;;;5059630;28;20243;-74
2022/10/09 09:53:52;;;;;;;;;;;13.50;99.90;;;;;;5062850;28;19921;-73
2022/10/09 09:56:17;;;;;;;;;;;13.60;99.90;;;;;;5052599;28;19912;-74
2022/10/09 09:58:51;;;;;;;;;;;13.70;99.90;;;;;;5063454;28;19978;-73
2022/10/09 10:01:22;;;;;;;;;;;13.80;99.90;;;;;;5062038;28;19971;-76
2022/10/09 10:03:49;;;;;;;;;;;14.00;99.90;;;;;;5046579;28;19935;-74
2022/10/09 10:06:23;;;;;;;;;;;14.20;99.90;;;;;;5059806;28;19927;-74
2022/10/09 10:09:11;;;;;;;;;;;14.30;99.90;;;;;;5054538;28;20230;-74
2022/10/09 10:11:37;;;;;;;;;;;14.50;99.90;;;;;;5043379;28;20223;-73
2022/10/09 10:14:07;;;;;;;;;;;14.60;99.90;;;;;;5044822;28;19946;-70
2022/10/09 10:16:33;;;;;;;;;;;14.70;99.90;;;;;;5063465;28;20322;-70
2022/10/09 10:18:58;;;;;;;;;;;14.90;99.90;;;;;;5062486;28;19913;-71
2022/10/09 10:21:24;;;;;;;;;;;15.00;99.90;;;;;;5062290;28;19909;-76
2022/10/09 10:24:00;;;;;;;;;;;15.10;99.90;;;;;;5062109;28;20239;-73
2022/10/09 10:26:39;;;;;;;;;;;15.30;99.90;;;;;;5046400;28;19913;-72
2022/10/09 10:29:12;;;;;;;;;;;15.50;99.90;;;;;;5061045;28;19978;-73
2022/10/09 10:32:00;;;;;;;;;;;15.60;99.90;;;;;;5059550;28;19909;-74
2022/10/09 10:34:48;;;;;;;;;;;15.80;99.90;;;;;;5057736;28;19909;-75
2022/10/09 10:37:14;;;;;;;;;;;15.90;99.90;;;;;;5037557;28;19929;-74
2022/10/09 10:39:46;;;;;;;;;;;16.10;99.90;;;;;;5061671;28;19920;-73
2022/10/09 10:42:23;;;;;;;;;;;16.30;99.90;;;;;;5060678;28;19944;-71
2022/10/09 10:45:23;;;;;;;;;;;16.60;99.90;;;;;;5060513;28;19920;-71
2022/10/09 10:47:51;;;;;;;;;;;16.70;99.90;;;;;;5057678;28;19912;-68
2022/10/09 10:50:16;;;;;;;;;;;17.00;99.90;;;;;;5039435;28;19920;-70
2022/10/09 10:52:48;;;;;;;;;;;17.20;99.90;;;;;;5061457;28;19908;-69
2022/10/09 10:55:52;;;;;;;;;;;17.60;99.90;;;;;;5061868;28;20169;-71
2022/10/09 10:58:47;;;;;;;;;;;17.90;99.90;;;;;;5040848;28;19923;-71
2022/10/09 11:01:38;;;;;;;;;;;18.30;99.90;;;;;;5033088;28;20122;-70
2022/10/09 11:04:15;;;;;;;;;;;18.60;99.90;;;;;;5052981;28;19915;-71
2022/10/09 11:07:00;;;;;;;;;;;19.00;99.90;;;;;;5059957;28;19921;-70
2022/10/09 11:09:57;;;;;;;;;;;19.30;99.90;;;;;;5060108;28;19921;-69
2022/10/09 11:12:31;;;;;;;;;;;19.60;99.30;;;;;;5058948;28;19954;-70
2022/10/09 11:15:06;;;;;;;;;;;20.00;94.00;;;;;;5061208;28;19920;-71
2022/10/09 11:17:41;;;;;;;;;;;20.20;92.40;;;;;;5062192;28;19920;-70
2022/10/09 11:20:37;;;;;;;;;;;20.20;93.10;;;;;;5044898;28;19920;-70
2022/10/09 11:23:18;;;;;;;;;;;20.40;85.40;;;;;;5058475;28;19913;-71
2022/10/09 11:25:49;;;;;;;;;;;20.60;86.70;;;;;;5062343;28;19912;-71
2022/10/09 11:28:21;;;;;;;;;;;20.70;85.10;;;;;;5060378;28;19932;-70
2022/10/09 11:30:53;;;;;;;;;;;20.80;82.50;;;;;;5061804;28;20205;-70
2022/10/09 11:33:27;;;;;;;;;;;21.10;82.10;;;;;;5044999;28;19976;-70
2022/10/09 11:36:40;;;;;;;;;;;21.40;86.00;;;;;;5045109;28;19919;-69
2022/10/09 11:39:22;;;;;;;;;;;21.90;76.40;;;;;;5055862;28;19917;-71
2022/10/09 11:41:49;;;;;;;;;;;22.40;80.80;;;;;;5040711;28;20203;-70
2022/10/09 11:44:34;;;;;;;;;;;22.80;74.80;;;;;;5060447;28;19960;-70
2022/10/09 11:47:40;;;;;;;;;;;23.40;72.90;;;;;;5044339;28;19923;-75
2022/10/09 11:50:51;;;;;;;;;;;24.10;67.80;;;;;;5060602;28;20004;-71
2022/10/09 11:53:18;;;;;;;;;;;24.60;59.20;;;;;;5057460;28;19963;-70
2022/10/09 11:55:44;;;;;;;;;;;25.20;60.40;;;;;;5065858;28;20115;-71
2022/10/09 11:58:20;;;;;;;;;;;25.60;56.80;;;;;;5064483;28;20004;-71
2022/10/09 12:00:49;;;;;;;;;;;25.90;58.20;;;;;;5074850;28;19932;-71
2022/10/09 12:03:32;;;;;;;;;;;26.40;48.80;;;;;;5064722;28;19947;-71
2022/10/09 12:06:16;;;;;;;;;;;26.40;51.20;;;;;;5062334;28;19943;-69
2022/10/09 12:09:05;;;;;;;;;;;26.70;47.60;;;;;;5046263;28;19920;-69
2022/10/09 12:11:31;;;;;;;;;;;26.80;47.10;;;;;;5062939;28;19919;-69
2022/10/09 12:13:58;;;;;;;;;;;26.90;49.10;;;;;;5047075;28;19950;-70
2022/10/09 12:16:33;;;;;;;;;;;27.40;45.70;;;;;;5062614;28;20128;-69
2022/10/09 12:19:00;;;;;;;;;;;27.70;48.50;;;;;;5064090;28;19917;-70
2022/10/09 12:21:49;;;;;;;;;;;28.40;43.10;;;;;;5041763;28;19963;-70
2022/10/09 12:24:36;;;;;;;;;;;28.90;41.40;;;;;;5063289;28;19921;-71
2022/10/09 12:27:02;;;;;;;;;;;29.70;38.30;;;;;;5063510;28;19951;-71
2022/10/09 12:29:35;;;;;;;;;;;29.90;36.90;;;;;;5045871;28;19919;-70
2022/10/09 12:32:03;;;;;;;;;;;30.00;36.40;;;;;;5064004;28;19952;-71
2022/10/09 12:34:31;;;;;;;;;;;30.40;37.50;;;;;;5062132;28;19912;-76
2022/10/09 12:37:08;;;;;;;;;;;31.30;35.90;;;;;;5046609;28;19924;-78
2022/10/09 12:39:36;;;;;;;;;;;31.60;33.50;;;;;;5065750;28;19913;-81
2022/10/09 12:42:02;;;;;;;;;;;31.70;32.70;;;;;;5065546;28;19909;-79
2022/10/09 12:44:33;;;;;;;;;;;32.00;32.60;;;;;;5067497;28;19919;-77
2022/10/09 12:47:01;;;;;;;;;;;32.40;30.80;;;;;;5047516;28;19979;-80
2022/10/09 12:49:27;;;;;;;;;;;32.60;30.30;;;;;;5064015;28;20157;-79
2022/10/09 12:51:54;;;;;;;;;;;32.70;30.30;;;;;;5060748;28;19915;-78
2022/10/09 12:54:19;;;;;;;;;;;33.10;30.00;;;;;;5064934;28;19925;-79
2022/10/09 12:56:45;;;;;;;;;;;33.10;30.00;;;;;;5064252;28;20223;-79
2022/10/09 12:59:11;;;;;;;;;;;33.40;30.30;;;;;;5064815;28;19909;-76
2022/10/09 13:01:38;;;;;;;;;;;33.80;28.30;;;;;;5066790;28;19971;-76
2022/10/09 13:04:04;;;;;;;;;;;34.30;27.70;;;;;;5064213;28;19916;-77
2022/10/09 13:06:50;;;;;;;;;;;34.40;27.90;;;;;;5056291;28;19967;-76
2022/10/09 13:09:21;;;;;;;;;;;34.60;27.10;;;;;;5078826;28;19975;-75
2022/10/09 13:11:58;;;;;;;;;;;35.00;25.80;;;;;;5045228;28;20111;-73
2022/10/09 13:14:26;;;;;;;;;;;35.00;26.00;;;;;;5062489;28;20134;-78
2022/10/09 13:16:52;;;;;;;;;;;35.10;26.10;;;;;;5052252;28;19912;-79
2022/10/09 13:19:24;;;;;;;;;;;35.10;25.70;;;;;;5041924;28;19909;-75
2022/10/09 13:22:05;;;;;;;;;;;35.50;25.30;;;;;;5042057;28;19913;-74
2022/10/09 13:24:31;;;;;;;;;;;35.80;24.70;;;;;;5066976;28;20159;-75
2022/10/09 13:26:57;;;;;;;;;;;35.90;24.30;;;;;;5057212;28;19909;-75
2022/10/09 13:29:23;;;;;;;;;;;35.80;24.90;;;;;;5068786;28;19916;-73
2022/10/09 13:31:48;;;;;;;;;;;35.70;24.10;;;;;;5049615;28;19992;-78
2022/10/09 13:34:15;;;;;;;;;;;36.00;24.00;;;;;;5068217;28;19940;-81
2022/10/09 13:36:40;;;;;;;;;;;36.50;23.90;;;;;;5064062;28;19920;-79
2022/10/09 13:39:12;;;;;;;;;;;37.40;21.80;;;;;;5060326;28;20270;-72
2022/10/09 13:41:37;;;;;;;;;;;37.30;22.00;;;;;;5049720;28;19913;-78
2022/10/09 13:44:03;;;;;;;;;;;37.00;22.10;;;;;;5046848;28;19915;-79
2022/10/09 13:46:29;;;;;;;;;;;36.80;22.40;;;;;;5061682;28;19940;-79
2022/10/09 13:48:54;;;;;;;;;;;37.10;22.10;;;;;;5065106;28;19917;-77
2022/10/09 13:51:20;;;;;;;;;;;37.40;21.80;;;;;;5064268;28;19920;-77
2022/10/09 13:53:46;;;;;;;;;;;37.70;20.90;;;;;;5066909;28;19909;-78
2022/10/09 13:56:11;;;;;;;;;;;37.50;21.10;;;;;;5063904;28;19917;-75
2022/10/09 13:58:37;;;;;;;;;;;37.60;21.30;;;;;;5063904;28;19912;-78
2022/10/09 14:01:03;;;;;;;;;;;37.60;20.30;;;;;;5064333;28;19944;-74
2022/10/09 14:03:28;;;;;;;;;;;37.60;20.40;;;;;;5063984;28;19909;-74
2022/10/09 14:05:58;;;;;;;;;;;37.50;20.20;;;;;;5063914;28;19913;-74
2022/10/09 14:08:24;;;;;;;;;;;37.50;20.30;;;;;;5063011;28;19919;-78
2022/10/09 14:10:50;;;;;;;;;;;37.30;20.60;;;;;;5034829;28;19936;-75
2022/10/09 14:13:15;;;;;;;;;;;37.10;19.90;;;;;;5063387;28;19909;-76
2022/10/09 14:15:41;;;;;;;;;;;36.70;20.60;;;;;;5063200;28;20231;-76
2022/10/09 14:18:07;;;;;;;;;;;36.70;20.80;;;;;;5063214;28;19912;-77
2022/10/09 14:20:34;;;;;;;;;;;36.60;20.30;;;;;;5062470;28;19916;-77
2022/10/09 14:23:00;;;;;;;;;;;36.60;20.00;;;;;;5062415;28;19915;-76
2022/10/09 14:25:25;;;;;;;;;;;35.90;20.40;;;;;;5046145;28;19948;-76
2022/10/09 14:27:51;;;;;;;;;;;34.60;20.50;;;;;;5045930;28;19909;-77
2022/10/09 14:30:17;;;;;;;;;;;32.90;21.70;;;;;;5062985;28;19913;-76
2022/10/09 14:32:43;;;;;;;;;;;31.20;22.90;;;;;;5064061;28;20207;-76
2022/10/09 14:35:08;;;;;;;;;;;29.20;25.30;;;;;;5063659;28;19936;-76
2022/10/09 14:37:34;;;;;;;;;;;27.50;27.90;;;;;;5045013;28;19928;-76
2022/10/09 14:40:00;;;;;;;;;;;26.00;29.90;;;;;;5062075;28;19924;-75